»·PEaware :: SKW3032 KPHX-KTUS

SKW3032 :: KPHX-KTUS

FLIGHT INFORMATION

Flight Status: Arrived
Operator:
SkyWest Airlines
More flights by this operator :: More flights under this callsign
Pilot: Alfredo R. (12181)
Aircraft: CANADAIR CL-600 CRJ-200
(CRJ2)
More flights by this aircraft type
Origin: KPHX Phoenix Sky Harbor Intl
United States
Destination: KTUS Tucson Intl
United States
More flights between these airports :: More routes between these airports
Route: STRRM1 STRRM BASER DINGO DINGO5
File this flight plan on PilotEdge
Remarks:
Altitude:
(Current/Filed)
170ft
Speed:
(Current/Filed)
350kts
Departed: 05-Jul-20 08:37 PM
Arrived: 05-Jul-20 09:10 PM
Distance/Time
Traveled:
96nm/0:33
Distance/Time
To Go:
Arrived

Flight Plot

Page will automatically refresh every two minutes.

Flight plan parsing failed; only flown route is shown


Map Options




Map Legend


Flown Route
Filed Route
Departure Airport
Arrival Airport
Navaid (VOR, NDB)
Fix

Horizontal Profiles

Position Reports

Time Latitude Longitude Heading Altitude Ground
Speed
05-Jul-20 19:38 33.438245 -111.996578 230 1136ft 0kts
05-Jul-20 19:39 33.438245 -111.996578 230 1136ft 0kts
05-Jul-20 19:40 33.438245 -111.996578 230 1136ft 0kts
05-Jul-20 19:41 33.438245 -111.996578 230 1136ft 0kts
05-Jul-20 19:42 33.438245 -111.996578 230 1136ft 0kts
05-Jul-20 19:43 33.438245 -111.996578 230 1136ft 0kts
05-Jul-20 19:44 33.438245 -111.996578 230 1136ft 0kts
05-Jul-20 19:45 33.438245 -111.996578 230 1136ft 0kts
05-Jul-20 19:46 33.438245 -111.996578 230 1136ft 0kts
05-Jul-20 19:47 33.438245 -111.996578 230 1136ft 0kts
05-Jul-20 19:48 33.438245 -111.996578 230 1136ft 0kts
05-Jul-20 19:49 33.438245 -111.996578 230 1136ft 0kts
05-Jul-20 19:50 33.438245 -111.996578 230 1136ft 0kts
05-Jul-20 19:51 33.438245 -111.996578 230 1136ft 0kts
05-Jul-20 19:52 33.438245 -111.996578 230 1136ft 0kts
05-Jul-20 19:53 33.438245 -111.996578 230 1136ft 0kts
05-Jul-20 19:54 33.438245 -111.996578 230 1136ft 0kts
05-Jul-20 19:55 33.438245 -111.996578 230 1136ft 0kts
05-Jul-20 19:56 33.438245 -111.996578 230 1136ft 0kts
05-Jul-20 19:57 33.438245 -111.996578 230 1136ft 0kts
05-Jul-20 19:58 33.438245 -111.996578 230 1136ft 0kts
05-Jul-20 19:59 33.438243 -111.996582 230 1136ft 0kts
05-Jul-20 20:00 33.438243 -111.996582 230 1136ft 0kts
05-Jul-20 20:01 33.438243 -111.996582 230 1136ft 0kts
05-Jul-20 20:02 33.438243 -111.996582 230 1136ft 0kts
05-Jul-20 20:03 33.438243 -111.996582 230 1136ft 0kts
05-Jul-20 20:04 33.438394 -111.996340 233 1136ft 2kts
05-Jul-20 20:05 33.438884 -111.996032 211 1136ft 2kts
05-Jul-20 20:06 33.439016 -111.995380 269 1136ft 2kts
05-Jul-20 20:07 33.439051 -111.995372 305 1136ft 1kts
05-Jul-20 20:08 33.439096 -111.995430 312 1136ft 0kts
05-Jul-20 20:09 33.439096 -111.995430 312 1136ft 0kts
05-Jul-20 20:14 33.438245 -111.996578 230 1136ft 0kts
05-Jul-20 20:15 33.438245 -111.996578 230 1136ft 0kts
05-Jul-20 20:16 33.438245 -111.996578 230 1136ft 0kts
05-Jul-20 20:17 33.438245 -111.996578 230 1136ft 0kts
05-Jul-20 20:18 33.438245 -111.996578 230 1136ft 0kts
05-Jul-20 20:19 33.438245 -111.996578 230 1136ft 0kts
05-Jul-20 20:20 33.438245 -111.996578 230 1136ft 0kts
05-Jul-20 20:21 33.438245 -111.996578 230 1136ft 0kts
05-Jul-20 20:22 33.438245 -111.996578 230 1136ft 0kts
05-Jul-20 20:23 33.438243 -111.996581 230 1136ft 0kts
05-Jul-20 20:24 33.438436 -111.996277 232 1136ft 1kts
05-Jul-20 20:25 33.438945 -111.995977 227 1136ft 2kts
05-Jul-20 20:26 33.439020 -111.995278 269 1136ft 1kts
05-Jul-20 20:27 33.439061 -111.995382 309 1136ft 0kts
05-Jul-20 20:28 33.439101 -111.995432 312 1136ft 0kts
05-Jul-20 20:29 33.439101 -111.995432 312 1136ft 0kts
05-Jul-20 20:30 33.439133 -111.995475 312 1136ft 1kts
05-Jul-20 20:31 33.439718 -111.994739 93 1136ft 3kts
05-Jul-20 20:32 33.439701 -111.993054 90 1136ft 9kts
05-Jul-20 20:33 33.439896 -111.992390 34 1136ft 0kts
05-Jul-20 20:34 33.439896 -111.992390 34 1136ft 0kts
05-Jul-20 20:35 33.440797 -111.992754 273 1136ft 9kts
05-Jul-20 20:36 33.440658 -112.018933 268 1522ft 155kts
05-Jul-20 20:37 33.428959 -112.076866 245 3917ft 210kts
05-Jul-20 20:38 33.404589 -112.149744 249 6462ft 259kts
05-Jul-20 20:39 33.338759 -112.170738 165 9043ft 285kts
05-Jul-20 20:40 33.263454 -112.136571 152 11562ft 296kts
05-Jul-20 20:41 33.191427 -112.090647 152 14065ft 298kts
05-Jul-20 20:42 33.117062 -112.042838 152 16579ft 309kts
05-Jul-20 20:43 33.036520 -111.991073 152 17083ft 333kts
05-Jul-20 20:44 32.955752 -111.944779 157 17014ft 325kts
05-Jul-20 20:45 32.873721 -111.897609 147 17017ft 328kts
05-Jul-20 20:46 32.798965 -111.836565 145 17010ft 323kts
05-Jul-20 20:47 32.725154 -111.775600 145 17002ft 323kts
05-Jul-20 20:48 32.650762 -111.714223 145 16303ft 325kts
05-Jul-20 20:49 32.577688 -111.654083 145 13779ft 309kts
05-Jul-20 20:50 32.522898 -111.586973 127 12037ft 252kts
05-Jul-20 20:51 32.478832 -111.517664 126 12007ft 261kts
05-Jul-20 20:52 32.428345 -111.458889 136 11938ft 254kts
05-Jul-20 20:53 32.386574 -111.388928 124 10805ft 253kts
05-Jul-20 20:54 32.342341 -111.320877 153 9258ft 255kts
05-Jul-20 20:55 32.287865 -111.268095 139 7950ft 243kts
05-Jul-20 20:56 32.236367 -111.214631 139 7957ft 254kts
05-Jul-20 20:57 32.181945 -111.159671 139 7963ft 257kts
05-Jul-20 20:58 32.128879 -111.106184 139 7965ft 248kts
05-Jul-20 20:59 32.075630 -111.052506 139 7966ft 252kts
05-Jul-20 21:00 32.022284 -110.998704 139 8003ft 249kts
05-Jul-20 21:02 31.968856 -110.944809 139 8004ft 250kts
05-Jul-20 21:03 31.914968 -110.890444 139 7993ft 253kts
05-Jul-20 21:04 31.907984 -110.826171 37 8007ft 212kts
05-Jul-20 21:05 31.963022 -110.807453 359 7317ft 207kts
05-Jul-20 21:06 32.009209 -110.835316 328 6375ft 166kts
05-Jul-20 21:07 32.046317 -110.862287 325 4965ft 150kts
05-Jul-20 21:08 32.076821 -110.893141 312 3492ft 136kts
05-Jul-20 21:09 32.103938 -110.925163 314 2670ft 132kts
05-Jul-20 21:10 32.116771 -110.938712 6 2603ft 6kts
05-Jul-20 21:11 32.118217 -110.939344 315 2600ft 10kts
05-Jul-20 21:12 32.120379 -110.939688 27 2595ft 5kts
05-Jul-20 21:13 32.120546 -110.939518 40 2596ft 0kts

Navigation Log

Ident Type
Flight plan parsing failed, navigation log unavailable